Time;durP1;ratioP1;P1;durP2;ratioP2;P2;SDS_P1;SDS_P2;PMS_P1;PMS_P2;Temp;Humidity;BMP_temperature;BMP_pressure;BME280_temperature;BME280_humidity;BME280_pressure;Samples;Min_cycle;Max_cycle;Signal;HPM_P1;HPM_P2
2022/11/17 00:02:07;;;;;;;15.15;4.10;;;;;;;-0.99;100.00;98143.72;4989722;28;20041;-78
2022/11/17 00:04:33;;;;;;;15.65;6.00;;;;;;;-1.04;100.00;98149.50;5027238;28;20044;-78
2022/11/17 00:06:58;;;;;;;44.00;13.07;;;;;;;-1.08;100.00;98155.28;5011843;28;20026;-81
2022/11/17 00:09:24;;;;;;;47.92;13.48;;;;;;;-1.08;100.00;98158.75;5011761;28;20033;-78
2022/11/17 00:14:35;;;;;;;48.35;11.85;;;;;;;-1.03;100.00;98161.72;5015299;28;20529;-79
2022/11/17 00:17:04;;;;;;;44.45;11.95;;;;;;;-0.96;100.00;98157.41;5026195;28;20045;-80
2022/11/17 00:22:14;;;;;;;29.02;9.30;;;;;;;-0.59;100.00;98160.47;5011661;28;20109;-78
2022/11/17 00:24:40;;;;;;;29.63;9.73;;;;;;;-0.60;100.00;98145.66;5039954;28;20586;-79
2022/11/17 00:27:05;;;;;;;35.47;9.35;;;;;;;-0.55;100.00;98153.88;5005585;28;20511;-79
2022/11/17 00:29:31;;;;;;;39.05;10.77;;;;;;;-0.55;100.00;98159.97;5046471;28;20395;-79
2022/11/17 00:34:43;;;;;;;29.15;8.68;;;;;;;-0.67;100.00;98163.97;5024293;28;20472;-78
2022/11/17 00:37:09;;;;;;;28.38;7.80;;;;;;;-0.72;100.00;98156.53;5009800;28;20036;-78
2022/11/17 00:39:40;;;;;;;26.75;8.05;;;;;;;-0.65;100.00;98172.53;5025552;28;20048;-78
2022/11/17 00:42:06;;;;;;;15.10;5.93;;;;;;;-0.57;100.00;98182.25;5022563;28;20284;-78
2022/11/17 00:44:31;;;;;;;13.85;6.03;;;;;;;-0.51;100.00;98169.19;5005563;28;20033;-77
2022/11/17 00:46:57;;;;;;;29.17;10.00;;;;;;;-0.48;100.00;98181.22;5002732;28;20048;-76
2022/11/17 00:49:25;;;;;;;29.85;8.10;;;;;;;-0.57;100.00;98191.00;5020917;28;20120;-78
2022/11/17 00:51:52;;;;;;;32.33;10.75;;;;;;;-0.60;100.00;98193.97;5026634;28;20061;-77
2022/11/17 00:54:18;;;;;;;30.10;9.70;;;;;;;-0.56;100.00;98192.63;5010525;28;20042;-76
2022/11/17 00:56:44;;;;;;;29.23;10.68;;;;;;;-0.62;100.00;98189.84;4992700;28;20052;-79
2022/11/17 00:59:10;;;;;;;21.23;10.35;;;;;;;-0.64;100.00;98190.00;5004602;28;20614;-78
2022/11/17 01:01:36;;;;;;;26.42;7.90;;;;;;;-0.64;100.00;98200.56;5001386;28;20507;-77
2022/11/17 01:04:03;;;;;;;25.73;8.68;;;;;;;-0.81;100.00;98164.66;5021783;28;20037;-77
2022/11/17 01:06:40;;;;;;;28.60;8.77;;;;;;;-0.73;100.00;98201.56;4992309;28;20033;-78
2022/11/17 01:09:09;;;;;;;29.23;8.32;;;;;;;-0.91;100.00;98178.00;5006915;28;20036;-77
2022/11/17 01:11:35;;;;;;;23.08;7.15;;;;;;;-0.89;100.00;98183.94;5046951;28;20037;-78
2022/11/17 01:14:01;;;;;;;24.83;9.57;;;;;;;-0.95;100.00;98201.25;5024532;28;20025;-76
2022/11/17 01:16:28;;;;;;;22.05;7.13;;;;;;;-1.04;100.00;98193.50;5025071;28;20415;-79
2022/11/17 01:18:56;;;;;;;22.60;7.10;;;;;;;-1.13;100.00;98201.41;5023570;28;20030;-78
2022/11/17 01:21:24;;;;;;;19.23;6.53;;;;;;;-1.17;100.00;98200.09;5023139;28;20037;-79
2022/11/17 01:23:51;;;;;;;14.02;5.28;;;;;;;-1.11;100.00;98203.91;5005214;28;20117;-81
2022/11/17 01:26:22;;;;;;;23.23;6.28;;;;;;;-1.11;100.00;98207.38;5017200;28;20069;-79
2022/11/17 01:28:48;;;;;;;14.93;5.70;;;;;;;-1.19;100.00;98207.34;5010011;28;20057;-78
2022/11/17 01:31:16;;;;;;;20.38;6.95;;;;;;;-1.29;100.00;98211.97;5016517;28;20499;-79
2022/11/17 01:33:43;;;;;;;17.55;5.28;;;;;;;-1.45;100.00;98210.13;5034129;28;20112;-78
2022/11/17 01:36:22;;;;;;;13.50;4.90;;;;;;;-1.56;100.00;98197.25;4988721;28;20045;-78
2022/11/17 01:38:47;;;;;;;10.48;4.35;;;;;;;-1.51;100.00;98208.09;5000545;28;20709;-77
2022/11/17 01:41:22;;;;;;;12.98;4.50;;;;;;;-1.58;100.00;98205.31;5020874;28;20037;-77
2022/11/17 01:44:12;;;;;;;14.88;4.55;;;;;;;-1.50;100.00;98209.78;5000283;28;21148;-78
2022/11/17 01:46:38;;;;;;;11.85;3.83;;;;;;;-1.58;100.00;98184.22;5010200;28;20045;-79
2022/11/17 01:49:13;;;;;;;10.57;4.38;;;;;;;-1.53;100.00;98191.66;5002643;28;20048;-76
2022/11/17 01:51:51;;;;;;;7.40;3.55;;;;;;;-1.55;100.00;98204.97;5002457;28;20441;-79
2022/11/17 01:54:20;;;;;;;9.10;4.35;;;;;;;-1.60;100.00;98215.19;5006772;28;20526;-78
2022/11/17 01:56:48;;;;;;;11.63;3.65;;;;;;;-1.69;100.00;98205.63;5019089;28;20056;-77
2022/11/17 01:59:27;;;;;;;12.07;4.80;;;;;;;-1.77;100.00;98209.06;5021087;28;20112;-78
2022/11/17 02:01:56;;;;;;;13.75;4.25;;;;;;;-1.66;100.00;98218.47;5014521;28;20108;-80
2022/11/17 02:04:25;;;;;;;8.75;3.92;;;;;;;-1.54;100.00;98229.53;5006828;28;20041;-78
2022/11/17 02:06:56;;;;;;;11.07;4.60;;;;;;;-1.31;100.00;98236.84;5005004;28;20112;-77
2022/11/17 02:09:22;;;;;;;8.63;3.97;;;;;;;-1.05;100.00;98229.63;5016608;28;20037;-78
2022/11/17 02:11:48;;;;;;;7.03;3.22;;;;;;;-0.95;100.00;98219.72;5008197;28;20463;-81
2022/11/17 02:14:14;;;;;;;7.97;3.85;;;;;;;-0.76;100.00;98223.03;5059629;28;20044;-77
2022/11/17 02:16:40;;;;;;;11.90;3.92;;;;;;;-0.62;100.00;98230.25;5026951;28;20025;-78
2022/11/17 02:19:06;;;;;;;7.68;4.53;;;;;;;-0.57;100.00;98227.94;5004533;28;20029;-82
2022/11/17 02:21:54;;;;;;;7.22;3.70;;;;;;;-0.56;100.00;98237.50;5002792;28;20025;-78
2022/11/17 02:24:57;;;;;;;10.18;3.70;;;;;;;-0.52;100.00;98236.19;5020324;28;20565;-78
2022/11/17 02:27:25;;;;;;;8.00;4.03;;;;;;;-0.70;100.00;98203.88;5016943;28;20045;-78
2022/11/17 02:30:10;;;;;;;5.55;3.53;;;;;;;-0.51;100.00;98235.19;5006044;28;20037;-78
2022/11/17 02:32:41;;;;;;;11.43;5.28;;;;;;;-0.48;100.00;98234.88;5010561;28;20080;-78
2022/11/17 02:35:33;;;;;;;11.82;4.57;;;;;;;-0.49;100.00;98230.56;5004857;28;20372;-78
2022/11/17 02:37:59;;;;;;;11.93;4.18;;;;;;;-0.49;100.00;98235.84;5005503;28;20045;-78
2022/11/17 02:40:30;;;;;;;12.68;5.07;;;;;;;-0.53;100.00;98237.19;5006276;28;20040;-78
2022/11/17 02:45:51;;;;;;;6.88;3.13;;;;;;;-0.79;100.00;98237.38;5011450;28;20399;-78
2022/11/17 02:48:23;;;;;;;9.43;4.55;;;;;;;-0.79;100.00;98241.84;5014606;28;20041;-80
2022/11/17 02:50:49;;;;;;;14.10;5.65;;;;;;;-0.81;100.00;98243.81;5010838;28;20029;-80
2022/11/17 02:53:15;;;;;;;4.05;1.80;;;;;;;-0.93;100.00;98230.94;5010795;28;20379;-78
2022/11/17 02:55:50;;;;;;;18.35;7.53;;;;;;;-0.94;100.00;98237.19;5001230;28;20025;-78
2022/11/17 02:58:16;;;;;;;21.65;7.20;;;;;;;-0.98;100.00;98238.53;5004876;28;20037;-77
2022/11/17 03:00:48;;;;;;;10.68;4.85;;;;;;;-0.92;100.00;98256.31;4997943;28;20040;-79
2022/11/17 03:03:35;;;;;;;9.65;5.05;;;;;;;-0.82;100.00;98263.25;5007739;28;20372;-78
2022/11/17 03:06:04;;;;;;;15.32;5.82;;;;;;;-0.75;100.00;98257.16;5035666;28;20037;-80
2022/11/17 03:08:38;;;;;;;12.95;5.32;;;;;;;-0.76;100.00;98259.97;5005580;28;20029;-79
2022/11/17 03:11:05;;;;;;;16.75;6.05;;;;;;;-0.78;100.00;98262.75;5014239;28;20041;-79
2022/11/17 03:13:49;;;;;;;11.52;4.90;;;;;;;-0.94;100.00;98253.03;5015650;28;20037;-77
2022/11/17 03:16:29;;;;;;;12.02;5.15;;;;;;;-0.84;100.00;98271.34;5030828;28;20045;-78
2022/11/17 03:19:09;;;;;;;9.57;4.55;;;;;;;-0.81;100.00;98264.91;4990159;28;20048;-78
2022/11/17 03:21:47;;;;;;;10.48;4.53;;;;;;;-0.76;100.00;98259.97;5021386;28;20137;-78
2022/11/17 03:24:20;;;;;;;9.52;5.05;;;;;;;-0.84;100.00;98257.31;5024491;28;20538;-77
2022/11/17 03:27:11;;;;;;;12.50;5.07;;;;;;;-0.94;100.00;98273.31;5008214;28;20029;-79
2022/11/17 03:29:39;;;;;;;11.82;4.90;;;;;;;-1.11;100.00;98273.28;5006322;28;20544;-78
2022/11/17 03:32:06;;;;;;;10.98;4.57;;;;;;;-1.26;100.00;98247.72;5022976;28;20037;-78
2022/11/17 03:34:35;;;;;;;9.88;4.95;;;;;;;-0.95;100.00;98269.03;5023229;28;20137;-77
2022/11/17 03:37:03;;;;;;;6.80;3.72;;;;;;;-0.90;100.00;98272.81;5025152;28;20180;-78
2022/11/17 03:39:35;;;;;;;9.30;4.25;;;;;;;-0.94;100.00;98273.31;5032252;28;20037;-78
2022/11/17 03:42:37;;;;;;;7.00;3.70;;;;;;;-1.02;100.00;98274.13;5031036;28;20399;-80
2022/11/17 03:45:06;;;;;;;10.45;4.15;;;;;;;-1.06;100.00;98271.97;5044963;28;21551;-78
2022/11/17 03:47:32;;;;;;;13.57;4.57;;;;;;;-1.13;100.00;98266.53;5007306;28;20045;-78
2022/11/17 03:50:12;;;;;;;13.30;4.60;;;;;;;-1.13;100.00;98269.97;5011993;28;20035;-77
2022/11/17 03:52:38;;;;;;;5.43;3.10;;;;;;;-1.15;100.00;98271.13;4993326;28;20128;-78
2022/11/17 03:55:05;;;;;;;10.50;3.78;;;;;;;-1.25;100.00;98265.19;5009242;28;20555;-78
2022/11/17 03:57:53;;;;;;;11.10;4.03;;;;;;;-1.35;100.00;98262.66;5012413;28;20022;-76
2022/11/17 04:00:19;;;;;;;11.88;3.97;;;;;;;-1.56;100.00;98263.13;5011817;28;20117;-77
2022/11/17 04:02:47;;;;;;;8.00;3.65;;;;;;;-1.65;100.00;98274.63;4996830;28;20179;-78
2022/11/17 04:05:15;;;;;;;6.28;3.33;;;;;;;-1.67;100.00;98268.66;5024225;28;20045;-78
2022/11/17 04:07:43;;;;;;;6.50;3.58;;;;;;;-1.69;100.00;98265.38;5009733;28;20040;-78
2022/11/17 04:10:14;;;;;;;7.20;3.15;;;;;;;-1.60;100.00;98275.78;5012009;28;20038;-77
2022/11/17 04:18:09;;;;;;;6.93;3.20;;;;;;;-1.16;100.00;98278.22;5023854;28;20519;-77
2022/11/17 04:20:35;;;;;;;7.72;2.85;;;;;;;-1.23;100.00;98279.84;5012940;28;20040;-80
2022/11/17 04:23:10;;;;;;;4.25;2.25;;;;;;;-1.36;100.00;98263.66;5023032;28;20053;-78
2022/11/17 04:28:36;;;;;;;5.15;2.85;;;;;;;-1.20;100.00;98287.44;5039264;28;20786;-77
2022/11/17 04:31:28;;;;;;;5.70;2.92;;;;;;;-1.17;100.00;98294.19;5003215;28;20032;-76
2022/11/17 04:33:59;;;;;;;5.13;2.72;;;;;;;-1.24;100.00;98294.03;5008319;28;20079;-76
2022/11/17 04:36:30;;;;;;;7.80;3.42;;;;;;;-1.36;100.00;98288.22;5042975;28;20029;-79
2022/11/17 04:38:58;;;;;;;7.03;3.10;;;;;;;-1.28;100.00;98299.78;4997344;28;20037;-78
2022/11/17 04:44:11;;;;;;;5.30;2.75;;;;;;;-1.34;100.00;98302.06;5010920;28;20051;-78
2022/11/17 04:46:38;;;;;;;6.65;2.95;;;;;;;-1.56;100.00;98265.78;5021393;28;20099;-78
2022/11/17 04:49:04;;;;;;;3.75;2.50;;;;;;;-1.33;100.00;98303.69;5027761;28;20040;-80
2022/11/17 04:51:31;;;;;;;5.63;2.83;;;;;;;-1.56;100.00;98286.84;5007662;28;20034;-77
2022/11/17 04:53:57;;;;;;;5.55;2.75;;;;;;;-1.45;100.00;98305.00;5027381;28;20033;-78
2022/11/17 04:56:23;;;;;;;5.78;2.60;;;;;;;-1.49;100.00;98316.00;5019452;28;20087;-78
2022/11/17 04:58:49;;;;;;;7.70;1.92;;;;;;;-1.60;100.00;98298.69;5021651;28;20025;-76
2022/11/17 05:01:17;;;;;;;5.28;2.05;;;;;;;-1.58;100.00;98305.44;5025125;28;20116;-77
2022/11/17 05:03:46;;;;;;;2.50;1.35;;;;;;;-1.55;100.00;98320.13;5022703;28;20037;-79
2022/11/17 05:06:26;;;;;;;5.45;2.50;;;;;;;-1.66;100.00;98315.94;5001772;28;20148;-78
2022/11/17 05:08:55;;;;;;;3.42;2.50;;;;;;;-1.71;100.00;98325.31;5024419;28;20391;-79
2022/11/17 05:14:12;;;;;;;5.30;2.60;;;;;;;-1.90;100.00;98319.28;5027304;28;20037;-79
2022/11/17 05:19:26;;;;;;;6.68;3.00;;;;;;;-1.92;100.00;98318.63;5010163;28;20077;-77
2022/11/17 05:21:52;;;;;;;8.60;2.55;;;;;;;-1.96;100.00;98327.78;4994097;28;20030;-76
2022/11/17 05:24:17;;;;;;;4.82;2.53;;;;;;;-2.09;100.00;98312.44;5026227;28;20056;-79
2022/11/17 05:26:45;;;;;;;3.50;2.17;;;;;;;-2.06;100.00;98322.66;5025152;28;20052;-79
2022/11/17 05:29:12;;;;;;;3.53;2.03;;;;;;;-2.04;100.00;98333.03;5021425;28;20030;-79
2022/11/17 05:31:38;;;;;;;4.05;2.00;;;;;;;-2.07;100.00;98335.97;4998470;28;20120;-80
2022/11/17 05:34:06;;;;;;;3.78;2.55;;;;;;;-2.11;100.00;98330.19;5023613;28;20043;-79
2022/11/17 05:36:32;;;;;;;3.97;2.33;;;;;;;-2.08;100.00;98335.16;5016503;28;20084;-78
2022/11/17 05:38:58;;;;;;;5.53;2.38;;;;;;;-2.08;100.00;98335.16;5041959;28;20040;-79
2022/11/17 05:41:24;;;;;;;4.05;1.92;;;;;;;-2.15;100.00;98328.03;4995301;28;20033;-78
2022/11/17 05:43:51;;;;;;;4.25;2.33;;;;;;;-2.18;100.00;98317.81;5010295;28;20037;-78
2022/11/17 05:46:18;;;;;;;4.82;2.42;;;;;;;-2.22;100.00;98320.75;4996725;28;20029;-79
2022/11/17 05:48:44;;;;;;;5.57;3.42;;;;;;;-2.17;100.00;98324.69;5026802;28;20029;-78
2022/11/17 05:51:11;;;;;;;9.68;4.13;;;;;;;-2.05;100.00;98334.00;5026085;28;20075;-77
2022/11/17 05:53:37;;;;;;;9.48;4.68;;;;;;;-2.01;100.00;98336.19;5010941;28;20402;-77
2022/11/17 05:56:22;;;;;;;4.93;2.90;;;;;;;-2.03;100.00;98342.59;4996757;28;20037;-79
2022/11/17 05:59:21;;;;;;;5.03;2.40;;;;;;;-2.15;100.00;98338.56;5027656;28;20091;-78
2022/11/17 06:01:54;;;;;;;10.10;2.88;;;;;;;-2.28;100.00;98350.28;5042223;28;20064;-77
2022/11/17 06:04:19;;;;;;;6.45;2.75;;;;;;;-2.32;100.00;98353.41;5027520;28;20042;-78
2022/11/17 06:06:47;;;;;;;7.32;3.00;;;;;;;-2.46;100.00;98341.59;4993275;28;21029;-78
2022/11/17 06:09:13;;;;;;;6.43;2.60;;;;;;;-2.49;100.00;98350.66;4989640;28;20369;-77
2022/11/17 06:11:39;;;;;;;5.45;2.63;;;;;;;-2.58;100.00;98334.94;5027150;28;20068;-78
2022/11/17 06:14:05;;;;;;;5.43;3.00;;;;;;;-2.51;100.00;98349.97;5009958;28;20452;-78
2022/11/17 06:16:34;;;;;;;5.03;2.70;;;;;;;-2.47;100.00;98361.00;4992396;28;20478;-81
2022/11/17 06:19:18;;;;;;;7.68;2.38;;;;;;;-2.51;100.00;98349.97;4994024;28;20045;-77
2022/11/17 06:21:43;;;;;;;4.35;2.38;;;;;;;-2.61;100.00;98351.03;4993106;28;20025;-78
2022/11/17 06:24:09;;;;;;;6.57;2.88;;;;;;;-2.61;100.00;98358.94;5006226;28;20090;-78
2022/11/17 06:26:35;;;;;;;5.00;2.38;;;;;;;-2.54;100.00;98359.94;4993567;28;20049;-78
2022/11/17 06:29:02;;;;;;;5.30;3.05;;;;;;;-2.47;100.00;98358.38;4989729;28;20723;-78
2022/11/17 06:31:28;;;;;;;8.05;3.25;;;;;;;-2.47;100.00;98361.00;5023612;28;20065;-79
2022/11/17 06:33:53;;;;;;;7.38;3.00;;;;;;;-2.51;100.00;98360.50;5009456;28;20411;-77
2022/11/17 06:36:19;;;;;;;6.07;3.08;;;;;;;-2.52;100.00;98358.00;5009873;28;20120;-77
2022/11/17 06:38:45;;;;;;;4.53;2.50;;;;;;;-2.51;100.00;98352.59;5023598;28;20038;-80
2022/11/17 06:41:10;;;;;;;7.70;2.83;;;;;;;-2.30;100.00;98370.69;5018162;28;20067;-80
2022/11/17 06:43:36;;;;;;;9.30;3.15;;;;;;;-2.21;100.00;98372.41;4991526;28;20049;-80
2022/11/17 06:46:03;;;;;;;10.68;3.90;;;;;;;-2.25;100.00;98359.69;4990445;28;20029;-77
2022/11/17 06:48:34;;;;;;;6.22;2.58;;;;;;;-2.17;100.00;98377.34;4989344;28;20040;-78
2022/11/17 06:51:03;;;;;;;11.60;3.57;;;;;;;-2.12;100.00;98383.00;5002161;28;20116;-79
2022/11/17 06:53:33;;;;;;;6.50;3.10;;;;;;;-2.21;100.00;98369.78;4994440;28;20319;-79
2022/11/17 06:58:30;;;;;;;8.07;3.05;;;;;;;-2.14;100.00;98388.44;5019198;28;20044;-78
2022/11/17 07:01:10;;;;;;;6.28;3.25;;;;;;;-2.11;100.00;98387.28;5008455;28;20053;-79
2022/11/17 07:03:37;;;;;;;4.13;2.40;;;;;;;-2.12;100.00;98390.88;5032595;28;20117;-79
2022/11/17 07:06:05;;;;;;;5.97;2.63;;;;;;;-2.10;100.00;98383.66;5016889;28;20025;-78
2022/11/17 07:08:31;;;;;;;5.82;3.22;;;;;;;-2.13;100.00;98392.69;4980287;28;20545;-77
2022/11/17 07:11:02;;;;;;;9.88;3.17;;;;;;;-2.11;100.00;98403.09;4998802;28;20051;-80
2022/11/17 07:13:28;;;;;;;6.82;3.00;;;;;;;-2.18;100.00;98404.69;5000470;28;20030;-78
2022/11/17 07:15:54;;;;;;;7.95;3.35;;;;;;;-2.20;100.00;98412.72;5017708;28;20111;-78
2022/11/17 07:18:20;;;;;;;8.25;3.15;;;;;;;-2.15;100.00;98422.78;5003189;28;20106;-78
2022/11/17 07:20:46;;;;;;;6.78;3.30;;;;;;;-2.22;100.00;98386.56;5024849;28;20025;-77
2022/11/17 07:23:13;;;;;;;27.70;13.45;;;;;;;-1.84;100.00;98428.47;4999881;28;20074;-78
2022/11/17 07:25:39;;;;;;;77.00;32.47;;;;;;;-1.73;100.00;98432.66;5002563;28;20025;-79
2022/11/17 07:28:05;;;;;;;58.90;26.38;;;;;;;-1.63;100.00;98434.19;4987297;28;20045;-78
2022/11/17 07:30:31;;;;;;;30.88;15.75;;;;;;;-1.51;100.00;98432.13;5015415;28;20045;-80
2022/11/17 07:32:58;;;;;;;31.27;14.98;;;;;;;-1.43;100.00;98428.69;5015032;28;20084;-81
2022/11/17 07:35:24;;;;;;;28.67;12.30;;;;;;;-1.36;100.00;98432.38;5020270;28;20033;-77
2022/11/17 07:37:50;;;;;;;21.95;9.98;;;;;;;-1.43;100.00;98423.44;5017951;28;20038;-82
2022/11/17 07:40:15;;;;;;;28.52;12.70;;;;;;;-1.51;100.00;98423.38;5009482;28;20036;-78
2022/11/17 07:42:41;;;;;;;21.98;9.73;;;;;;;-1.60;100.00;98427.78;5024421;28;20033;-77
2022/11/17 07:45:08;;;;;;;14.13;7.07;;;;;;;-1.83;100.00;98390.59;5006425;28;20029;-78
2022/11/17 07:47:34;;;;;;;10.27;5.32;;;;;;;-1.48;100.00;98439.75;5024969;28;20032;-76
2022/11/17 07:49:59;;;;;;;14.57;7.13;;;;;;;-1.46;100.00;98445.66;4991740;28;20037;-79
2022/11/17 07:52:25;;;;;;;20.08;8.57;;;;;;;-1.40;100.00;98462.69;5020241;28;21609;-77
2022/11/17 07:54:50;;;;;;;22.45;9.40;;;;;;;-1.46;100.00;98450.94;5025733;28;20102;-78
2022/11/17 07:57:16;;;;;;;22.17;9.90;;;;;;;-1.43;100.00;98445.38;5027710;28;20030;-78
2022/11/17 07:59:42;;;;;;;20.98;9.57;;;;;;;-1.36;100.00;98462.19;5020466;28;20025;-78
2022/11/17 08:02:08;;;;;;;22.17;10.80;;;;;;;-1.35;100.00;98463.88;5019173;28;20051;-78
2022/11/17 08:04:34;;;;;;;18.33;9.55;;;;;;;-1.27;100.00;98468.38;5026061;28;20470;-78
2022/11/17 08:06:59;;;;;;;5.72;4.05;;;;;;;-1.34;100.00;98467.31;5020553;28;20021;-79
2022/11/17 08:09:25;;;;;;;7.95;4.47;;;;;;;-1.29;100.00;98467.69;5016226;28;20099;-80
2022/11/17 08:11:51;;;;;;;4.82;2.90;;;;;;;-1.38;100.00;98463.34;5009311;28;20040;-79
2022/11/17 08:14:16;;;;;;;24.50;7.93;;;;;;;-1.33;100.00;98469.78;5006131;28;20030;-80
2022/11/17 08:16:45;;;;;;;18.67;6.63;;;;;;;-1.44;100.00;98456.06;5022935;28;20132;-78
2022/11/17 08:19:11;;;;;;;4.60;2.03;;;;;;;-1.35;100.00;98477.03;5024816;28;20034;-80
2022/11/17 08:21:37;;;;;;;6.30;4.00;;;;;;;-1.34;100.00;98480.50;5022385;28;20041;-78
2022/11/17 08:24:03;;;;;;;9.73;4.75;;;;;;;-1.35;100.00;98477.03;5017632;28;20120;-77
2022/11/17 08:26:28;;;;;;;16.75;6.70;;;;;;;-1.25;100.00;98486.63;5023452;28;20506;-78
2022/11/17 08:28:55;;;;;;;10.32;5.25;;;;;;;-1.29;100.00;98475.59;5004106;28;20041;-79
2022/11/17 08:31:21;;;;;;;10.43;4.63;;;;;;;-1.20;100.00;98487.00;5030583;28;20033;-78
2022/11/17 08:33:47;;;;;;;6.13;3.33;;;;;;;-1.21;100.00;98480.09;4996904;28;21808;-78
2022/11/17 08:36:12;;;;;;;14.50;6.05;;;;;;;-1.16;100.00;98489.19;4993581;28;20048;-78
2022/11/17 08:38:38;;;;;;;19.05;7.97;;;;;;;-1.18;100.00;98488.50;5009999;28;20040;-78
2022/11/17 08:41:06;;;;;;;13.27;6.75;;;;;;;-1.14;100.00;98491.63;4993999;28;20037;-79
2022/11/17 08:43:32;;;;;;;14.90;6.13;;;;;;;-1.14;100.00;98486.38;4994040;28;20581;-80
2022/11/17 08:45:58;;;;;;;23.70;9.18;;;;;;;-1.12;100.00;98487.03;5025572;28;20030;-80
2022/11/17 08:48:24;;;;;;;28.40;9.23;;;;;;;-1.08;100.00;98490.22;5026250;28;20441;-80
2022/11/17 08:50:50;;;;;;;20.45;7.13;;;;;;;-1.07;100.00;98492.69;5012822;28;20049;-77
2022/11/17 08:53:18;;;;;;;20.33;8.25;;;;;;;-1.01;100.00;98492.03;5012261;28;20073;-77
2022/11/17 08:55:44;;;;;;;20.67;8.18;;;;;;;-0.90;100.00;98497.06;5026545;28;20060;-77
2022/11/17 08:58:11;;;;;;;19.15;7.72;;;;;;;-0.79;100.00;98492.50;5029023;28;20129;-77
2022/11/17 09:00:40;;;;;;;19.73;8.13;;;;;;;-0.64;100.00;98490.88;5010588;28;20048;-78
2022/11/17 09:03:07;;;;;;;17.67;7.78;;;;;;;-0.42;100.00;98500.03;5007761;28;20560;-79
2022/11/17 09:05:35;;;;;;;11.02;5.72;;;;;;;-0.15;100.00;98501.56;5025735;28;20529;-80
2022/11/17 09:08:01;;;;;;;17.30;7.75;;;;;;;0.04;100.00;98489.03;5026130;28;20033;-79
2022/11/17 09:10:27;;;;;;;17.95;7.05;;;;;;;0.44;100.00;98496.94;5023118;28;20434;-80
2022/11/17 09:12:56;;;;;;;12.38;6.28;;;;;;;0.78;100.00;98505.69;4995384;28;20048;-80
2022/11/17 09:15:22;;;;;;;13.32;6.88;;;;;;;1.01;100.00;98500.50;5027551;28;20415;-77
2022/11/17 09:17:48;;;;;;;13.23;6.88;;;;;;;1.44;100.00;98501.81;5015215;28;20025;-78
2022/11/17 09:20:15;;;;;;;12.77;5.95;;;;;;;1.92;100.00;98505.19;4992398;28;20123;-78
2022/11/17 09:22:41;;;;;;;11.38;5.53;;;;;;;2.40;100.00;98505.00;4994109;28;20595;-77
2022/11/17 09:25:07;;;;;;;10.98;5.78;;;;;;;2.77;100.00;98492.72;4998652;28;20116;-77
2022/11/17 09:27:33;;;;;;;11.15;6.53;;;;;;;2.66;100.00;98509.91;5025632;28;20033;-78
2022/11/17 09:29:59;;;;;;;9.95;5.82;;;;;;;2.85;100.00;98514.69;5020280;28;20098;-78
2022/11/17 09:32:25;;;;;;;10.40;5.40;;;;;;;3.19;100.00;98515.16;5008972;28;20037;-78
2022/11/17 09:34:51;;;;;;;11.25;5.72;;;;;;;3.70;100.00;98521.31;5008574;28;20040;-84
2022/11/17 09:37:16;;;;;;;8.00;4.82;;;;;;;4.57;100.00;98525.69;4998787;28;20030;-84
2022/11/17 09:39:42;;;;;;;9.57;4.47;;;;;;;5.17;96.76;98534.13;4999109;28;20025;-85
2022/11/17 09:42:13;;;;;;;11.55;4.80;;;;;;;5.26;95.34;98540.91;5028787;28;20039;-86
2022/11/17 09:44:44;;;;;;;8.32;5.03;;;;;;;4.33;100.00;98531.41;5046154;28;20324;-84
2022/11/17 09:47:28;;;;;;;9.52;4.78;;;;;;;3.37;100.00;98546.69;4991455;28;20100;-85
2022/11/17 09:49:57;;;;;;;7.75;3.55;;;;;;;2.64;100.00;98549.88;5018853;28;20080;-87
2022/11/17 09:52:42;;;;;;;7.90;4.72;;;;;;;2.06;100.00;98553.13;5009312;28;20033;-86
2022/11/17 09:55:42;;;;;;;8.18;4.55;;;;;;;1.81;100.00;98555.13;4996980;28;20043;-85
2022/11/17 09:58:20;;;;;;;15.88;5.43;;;;;;;2.16;100.00;98554.56;4994412;28;20120;-85
2022/11/17 10:00:47;;;;;;;10.68;5.80;;;;;;;3.66;100.00;98545.81;5022419;28;20159;-84
2022/11/17 10:03:29;;;;;;;12.50;6.22;;;;;;;5.55;100.00;98556.88;5014674;28;20127;-85
2022/11/17 10:05:55;;;;;;;11.82;5.80;;;;;;;6.71;97.26;98552.28;5026822;28;20476;-85
2022/11/17 10:08:33;;;;;;;12.20;7.47;;;;;;;7.55;94.73;98571.34;5046599;28;20123;-87
2022/11/17 10:11:30;;;;;;;11.30;6.63;;;;;;;8.53;91.24;98560.41;5014510;28;20493;-85
2022/11/17 10:13:48;;;;;;;10.32;6.13;;;;;;;9.03;88.33;98537.13;5037274;28;20033;-85
2022/11/17 10:16:14;;;;;;;10.18;7.10;;;;;;;9.74;88.87;98566.31;5011041;28;20122;-85
2022/11/17 10:18:40;;;;;;;10.30;6.63;;;;;;;10.71;88.24;98563.59;5008491;28;20057;-84
2022/11/17 10:21:07;;;;;;;8.60;4.97;;;;;;;11.53;85.73;98557.47;5013256;28;20060;-85
2022/11/17 10:23:56;;;;;;;8.30;5.47;;;;;;;10.75;83.37;98576.38;4997896;28;20459;-84
2022/11/17 10:26:21;;;;;;;12.27;6.00;;;;;;;10.37;85.78;98574.00;4990481;28;20065;-84
2022/11/17 10:28:47;;;;;;;9.73;6.43;;;;;;;10.07;90.36;98580.16;5024041;28;20510;-77
2022/11/17 10:31:16;;;;;;;9.07;5.95;;;;;;;10.85;88.47;98583.03;5011527;28;20037;-78
2022/11/17 10:33:44;;;;;;;10.05;5.55;;;;;;;11.38;82.98;98582.97;4991037;28;20037;-78
2022/11/17 10:36:22;;;;;;;9.25;5.85;;;;;;;10.81;83.91;98579.19;5008487;28;20602;-78
2022/11/17 10:38:50;;;;;;;9.43;5.43;;;;;;;9.88;89.12;98586.59;4988204;28;20102;-78
2022/11/17 10:41:19;;;;;;;8.50;5.78;;;;;;;9.32;94.37;98577.69;5024723;28;20333;-78
2022/11/17 10:44:26;;;;;;;8.65;5.88;;;;;;;9.34;99.34;98589.03;5011925;28;20045;-79
2022/11/17 10:47:00;;;;;;;11.00;5.78;;;;;;;9.87;98.80;98591.16;5016581;28;20042;-79
2022/11/17 10:49:29;;;;;;;9.48;5.80;;;;;;;10.31;97.63;98589.19;5011359;28;20045;-79
2022/11/17 10:52:08;;;;;;;12.73;7.55;;;;;;;10.31;98.37;98586.50;5025887;28;20033;-78
2022/11/17 10:54:34;;;;;;;8.45;6.32;;;;;;;10.10;98.30;98587.75;5025878;28;20549;-78
2022/11/17 10:57:01;;;;;;;7.47;5.43;;;;;;;9.77;100.00;98601.59;4990414;28;20029;-78
2022/11/17 10:59:42;;;;;;;7.35;5.13;;;;;;;9.87;100.00;98609.09;5027305;28;20056;-78
2022/11/17 11:02:30;;;;;;;8.85;5.70;;;;;;;9.38;100.00;98613.53;5003459;28;20091;-78
2022/11/17 11:05:25;;;;;;;8.48;5.82;;;;;;;9.42;100.00;98609.34;5038104;28;20069;-79
2022/11/17 11:08:07;;;;;;;10.52;7.07;;;;;;;9.45;100.00;98611.63;5018397;28;20041;-78
2022/11/17 11:10:34;;;;;;;10.07;6.18;;;;;;;8.88;100.00;98603.63;5007489;28;20049;-78
2022/11/17 11:13:19;;;;;;;10.13;6.82;;;;;;;8.86;100.00;98602.22;4992060;28;20106;-77
2022/11/17 11:15:45;;;;;;;9.05;5.20;;;;;;;8.88;100.00;98617.03;5025655;28;20433;-78
2022/11/17 11:18:16;;;;;;;9.68;5.07;;;;;;;8.73;100.00;98622.72;5037323;28;20051;-78
2022/11/17 11:20:53;;;;;;;8.32;5.20;;;;;;;8.54;100.00;98629.00;5025431;28;20072;-79
2022/11/17 11:23:30;;;;;;;7.80;5.20;;;;;;;8.21;100.00;98632.66;5008388;28;20105;-78
2022/11/17 11:26:09;;;;;;;11.23;5.45;;;;;;;8.27;100.00;98633.66;5025713;28;20025;-79
2022/11/17 11:28:44;;;;;;;11.10;5.63;;;;;;;8.49;100.00;98632.31;5037642;28;20056;-79
2022/11/17 11:31:33;;;;;;;9.15;5.00;;;;;;;8.33;100.00;98640.81;5001287;28;20124;-80
2022/11/17 11:34:14;;;;;;;9.27;4.82;;;;;;;8.23;100.00;98652.00;5028165;28;20112;-78
2022/11/17 11:37:07;;;;;;;10.68;5.53;;;;;;;7.65;100.00;98639.41;5011239;28;20503;-78
2022/11/17 11:39:55;;;;;;;10.13;5.65;;;;;;;7.03;100.00;98613.94;5008188;28;20034;-79
2022/11/17 11:42:40;;;;;;;7.35;5.22;;;;;;;7.03;100.00;98652.19;5027011;28;20038;-79
2022/11/17 11:45:33;;;;;;;8.02;5.30;;;;;;;7.51;100.00;98651.13;5020471;28;20064;-77
2022/11/17 11:48:15;;;;;;;9.32;6.38;;;;;;;8.48;100.00;98652.09;5016618;28;20033;-78
2022/11/17 11:50:57;;;;;;;7.85;5.38;;;;;;;8.94;100.00;98652.88;5008839;28;20044;-80
2022/11/17 11:53:45;;;;;;;12.48;5.57;;;;;;;8.33;100.00;98638.13;5026004;28;20025;-77
2022/11/17 11:56:17;;;;;;;9.45;4.70;;;;;;;7.49;100.00;98626.47;5025072;28;20113;-77
2022/11/17 11:58:58;;;;;;;9.18;5.40;;;;;;;7.92;100.00;98628.63;5040271;28;20041;-77
2022/11/17 12:01:24;;;;;;;8.20;5.18;;;;;;;7.73;100.00;98635.69;4997299;28;20064;-81
2022/11/17 12:04:03;;;;;;;10.38;5.28;;;;;;;7.29;100.00;98637.19;5026293;28;20063;-79
2022/11/17 12:06:39;;;;;;;8.88;5.07;;;;;;;6.92;100.00;98630.59;5026676;28;20037;-76
2022/11/17 12:09:27;;;;;;;16.05;6.80;;;;;;;6.82;100.00;98650.50;5025310;28;20029;-77